Time;durP1;ratioP1;P1;durP2;ratioP2;P2;SDS_P1;SDS_P2;PMS_P1;PMS_P2;Temp;Humidity;BMP_temperature;BMP_pressure;BME280_temperature;BME280_humidity;BME280_pressure;Samples;Min_cycle;Max_cycle;Signal;HPM_P1;HPM_P2
2022/08/10 00:03:28;;;;;;;9.83;4.10;;;;;;;18.59;68.12;101642.55;3549085;82;32652;-78
2022/08/10 00:08:29;;;;;;;7.20;3.83;;;;;;;18.55;68.33;101637.59;3536448;82;98479;-78
2022/08/10 00:13:30;;;;;;;7.77;3.70;;;;;;;18.52;68.56;101641.80;3497928;83;31653;-78
2022/08/10 00:18:32;;;;;;;9.00;3.80;;;;;;;18.50;68.93;101644.98;3495664;83;98518;-79
2022/08/10 00:23:35;;;;;;;8.27;4.63;;;;;;;18.46;68.74;101637.20;3500508;82;31688;-79
2022/08/10 00:28:37;;;;;;;9.83;4.30;;;;;;;18.33;68.86;101631.06;3497575;83;98493;-79
2022/08/10 00:33:38;;;;;;;8.25;4.53;;;;;;;18.28;69.09;101643.97;3493542;83;48726;-78
2022/08/10 00:38:39;;;;;;;10.20;4.23;;;;;;;18.20;69.23;101639.61;3472418;83;98519;-78
2022/08/10 00:43:40;;;;;;;8.17;5.00;;;;;;;18.17;69.44;101644.58;3484842;83;26226;-78
2022/08/10 00:48:42;;;;;;;7.30;4.07;;;;;;;18.08;69.13;101646.38;3480532;83;98904;-78
2022/08/10 00:53:43;;;;;;;8.03;4.50;;;;;;;17.96;69.37;101652.34;3491057;83;26252;-77
2022/08/10 00:58:46;;;;;;;7.57;4.20;;;;;;;17.89;69.70;101649.56;3494521;83;98881;-78
2022/08/10 01:03:47;;;;;;;10.23;4.58;;;;;;;17.84;69.95;101647.76;3484453;83;32912;-78
2022/08/10 01:09:05;;;;;;;11.77;4.37;;;;;;;17.76;70.04;101646.17;3494354;83;99126;-78
2022/08/10 01:14:27;;;;;;;7.67;4.12;;;;;;;17.73;70.31;101650.55;3511845;81;32026;-77
2022/08/10 01:20:03;;;;;;;9.58;4.67;;;;;;;17.69;70.41;101645.55;3585993;80;98573;-77
2022/08/10 01:25:30;;;;;;;7.00;4.10;;;;;;;17.62;70.27;101647.53;3557247;80;25970;-78
2022/08/10 01:30:34;;;;;;;11.22;4.05;;;;;;;17.48;70.32;101655.84;3579890;80;98354;-78
2022/08/10 01:35:49;;;;;;;9.08;4.33;;;;;;;17.39;70.38;101652.04;3575260;80;33039;-77
2022/08/10 01:40:58;;;;;;;8.55;4.42;;;;;;;17.30;70.55;101651.61;3610272;80;98499;-78
2022/08/10 01:46:02;;;;;;;10.20;4.83;;;;;;;17.23;70.76;101657.13;3625900;80;32937;-78
2022/08/10 01:51:14;;;;;;;11.00;5.20;;;;;;;17.17;71.09;101650.96;3621661;80;98553;-78
2022/08/10 01:56:17;;;;;;;9.33;4.75;;;;;;;17.11;71.29;101640.79;3615700;80;98668;-78
2022/08/10 02:01:22;;;;;;;8.68;5.08;;;;;;;17.12;71.35;101642.99;3619063;80;32793;-77
2022/08/10 02:06:27;;;;;;;9.25;5.72;;;;;;;17.02;71.48;101635.39;3604071;80;98720;-77
2022/08/10 02:11:28;;;;;;;7.70;4.20;;;;;;;16.99;71.77;101633.38;3586442;80;33302;-77
2022/08/10 02:16:31;;;;;;;7.67;4.57;;;;;;;16.96;71.95;101630.79;3540025;82;99019;-77
2022/08/10 02:21:33;;;;;;;8.25;4.95;;;;;;;16.90;72.14;101628.19;3517005;82;32977;-77
2022/08/10 02:26:35;;;;;;;11.38;5.58;;;;;;;16.84;72.24;101628.36;3531453;82;98495;-77
2022/08/10 02:31:37;;;;;;;9.23;5.65;;;;;;;16.78;72.27;101636.87;3548954;81;33960;-77
2022/08/10 02:36:46;;;;;;;8.23;5.00;;;;;;;16.73;72.28;101631.68;3544895;82;98489;-77
2022/08/10 02:41:58;;;;;;;8.73;4.85;;;;;;;16.71;72.50;101627.70;3534649;82;33430;-77
2022/08/10 02:47:13;;;;;;;9.08;5.28;;;;;;;16.66;72.55;101630.84;3507322;82;98835;-77
2022/08/10 02:52:21;;;;;;;8.63;5.00;;;;;;;16.61;72.65;101634.80;3499136;82;33007;-78
2022/08/10 02:57:30;;;;;;;8.93;4.37;;;;;;;16.54;72.81;101633.37;3428101;84;98880;-78
2022/08/10 03:02:38;;;;;;;9.03;4.97;;;;;;;16.52;73.06;101633.56;3470694;83;33528;-78
2022/08/10 03:07:45;;;;;;;10.38;5.03;;;;;;;16.50;73.20;101633.13;3477628;83;98692;-77
2022/08/10 03:12:54;;;;;;;11.45;5.35;;;;;;;16.42;73.01;101636.48;3473642;82;2274070;-80
2022/08/10 03:17:56;;;;;;;9.53;4.75;;;;;;;16.39;73.25;101640.60;3485013;82;99719;-79
2022/08/10 03:22:59;;;;;;;9.68;5.28;;;;;;;16.34;73.33;101640.93;3515727;82;33446;-79
2022/08/10 03:28:01;;;;;;;8.38;4.15;;;;;;;16.30;73.37;101644.30;3509562;82;98439;-79
2022/08/10 03:33:06;;;;;;;12.35;5.10;;;;;;;16.25;73.53;101642.66;3519096;82;33592;-78
2022/08/10 03:38:08;;;;;;;7.83;4.53;;;;;;;16.24;73.65;101643.84;3489229;82;98879;-80
2022/08/10 03:43:14;;;;;;;7.85;5.00;;;;;;;16.22;73.82;101650.39;3524202;82;32905;-79
2022/08/10 03:48:18;;;;;;;11.00;4.85;;;;;;;16.23;73.77;101647.00;3513829;82;99016;-79
2022/08/10 03:53:20;;;;;;;8.28;4.40;;;;;;;16.23;74.05;101648.39;3520808;82;32941;-76
2022/08/10 03:58:21;;;;;;;11.45;5.45;;;;;;;16.21;73.93;101650.77;3512053;82;98573;-77
2022/08/10 04:03:22;;;;;;;8.90;4.93;;;;;;;16.16;74.12;101656.68;3530214;81;25948;-77
2022/08/10 04:08:23;;;;;;;9.20;4.07;;;;;;;16.14;74.23;101662.61;3526477;81;98442;-77
2022/08/10 04:13:24;;;;;;;7.40;4.67;;;;;;;16.15;74.46;101659.26;3496965;82;31740;-76
2022/08/10 04:18:25;;;;;;;8.70;5.07;;;;;;;16.16;74.57;101667.21;3493034;83;98486;-75
2022/08/10 04:23:31;;;;;;;11.27;6.30;;;;;;;16.15;74.55;101667.59;3454132;83;31625;-78
2022/08/10 04:28:32;;;;;;;15.63;8.53;;;;;;;16.15;74.75;101671.75;3439724;83;99155;-78
2022/08/10 04:33:36;;;;;;;18.55;11.45;;;;;;;16.14;74.58;101668.78;3453874;83;33510;-78
2022/08/10 04:38:39;;;;;;;16.07;11.00;;;;;;;16.12;74.99;101672.51;3488554;83;99248;-78
2022/08/10 04:43:40;;;;;;;16.37;9.03;;;;;;;16.16;75.14;101674.73;3494391;83;33658;-78
2022/08/10 04:48:41;;;;;;;13.00;7.73;;;;;;;16.20;75.26;101673.60;3468604;83;98997;-78
2022/08/10 04:53:43;;;;;;;11.33;7.70;;;;;;;16.22;75.32;101682.34;3476215;83;26717;-78
2022/08/10 04:58:43;;;;;;;12.90;7.03;;;;;;;16.25;75.39;101677.38;3460305;83;98695;-78
2022/08/10 05:03:44;;;;;;;14.17;6.70;;;;;;;16.29;75.56;101679.61;3483623;83;27981;-78
2022/08/10 05:08:45;;;;;;;10.95;6.60;;;;;;;16.32;75.61;101683.59;3474525;83;98721;-78
2022/08/10 05:13:46;;;;;;;11.97;6.50;;;;;;;16.37;75.76;101687.41;3527221;81;35507;-78
2022/08/10 05:18:48;;;;;;;14.53;6.50;;;;;;;16.38;75.87;101692.59;3556248;81;98588;-78
2022/08/10 05:23:49;;;;;;;12.83;6.57;;;;;;;16.43;75.95;101697.81;3500616;81;33058;-78
2022/08/10 05:28:50;;;;;;;15.77;6.83;;;;;;;16.46;76.25;101694.86;3517947;81;99311;-78
2022/08/10 05:33:51;;;;;;;10.43;6.10;;;;;;;16.53;76.05;101698.49;3527203;81;31633;-78
2022/08/10 05:38:53;;;;;;;14.07;7.97;;;;;;;16.67;76.54;101695.02;3553716;81;98880;-79
2022/08/10 05:43:56;;;;;;;13.37;7.53;;;;;;;16.96;77.84;101698.93;3546994;81;32094;-79
2022/08/10 05:48:57;;;;;;;12.60;6.97;;;;;;;17.41;77.84;101692.82;3520528;81;98985;-78
2022/08/10 05:53:59;;;;;;;10.97;7.00;;;;;;;18.01;77.73;101692.94;3550585;81;26539;-79
2022/08/10 05:59:00;;;;;;;12.27;6.93;;;;;;;18.70;76.96;101696.92;3551077;81;99076;-79
2022/08/10 06:04:03;;;;;;;18.03;7.20;;;;;;;19.33;75.31;101692.55;3527207;81;26380;-78
2022/08/10 06:09:06;;;;;;;12.20;6.72;;;;;;;20.00;73.80;101696.53;3545417;81;98691;-79
2022/08/10 06:19:30;;;;;;;13.03;6.20;;;;;;;21.29;71.77;101704.91;3520118;81;99203;-79
2022/08/10 06:24:39;;;;;;;10.25;5.22;;;;;;;22.06;70.66;101710.88;3562653;81;33394;-79
2022/08/10 06:29:42;;;;;;;8.85;4.72;;;;;;;22.48;67.60;101711.59;3502322;82;98909;-79
2022/08/10 06:34:51;;;;;;;10.38;5.37;;;;;;;22.96;67.00;101718.32;3534997;81;26034;-79
2022/08/10 06:39:53;;;;;;;10.00;4.95;;;;;;;23.17;64.67;101714.30;3524436;81;98656;-79
2022/08/10 06:45:21;;;;;;;9.80;4.83;;;;;;;23.22;64.22;101725.06;3531004;81;33047;-80
2022/08/10 06:50:37;;;;;;;9.60;4.67;;;;;;;23.32;62.78;101717.81;3537708;81;98626;-81
2022/08/10 06:55:42;;;;;;;8.55;4.20;;;;;;;23.32;61.94;101717.03;3554199;81;26389;-80
2022/08/10 07:00:44;;;;;;;8.88;3.95;;;;;;;23.39;61.51;101720.49;3547108;81;98373;-80
2022/08/10 07:05:48;;;;;;;8.23;4.28;;;;;;;23.37;60.85;101717.30;3558130;81;53326;-80
2022/08/10 07:10:52;;;;;;;9.83;4.65;;;;;;;23.19;59.74;101722.50;3551635;81;98697;-79
2022/08/10 07:15:55;;;;;;;7.08;3.47;;;;;;;23.13;59.97;101713.56;3487979;83;26423;-80
2022/08/10 07:21:00;;;;;;;8.70;4.50;;;;;;;23.12;60.09;101715.60;3486160;83;98306;-79
2022/08/10 07:26:03;;;;;;;10.43;3.80;;;;;;;23.09;59.24;101710.83;3499372;83;25685;-79
2022/08/10 07:31:05;;;;;;;8.00;3.90;;;;;;;23.09;59.08;101713.64;3474480;83;98394;-81
2022/08/10 07:36:09;;;;;;;9.13;3.55;;;;;;;23.10;59.24;101715.22;3475772;83;34070;-81
2022/08/10 07:41:11;;;;;;;8.60;4.12;;;;;;;23.17;58.86;101719.91;3470036;83;98220;-78
2022/08/10 07:46:15;;;;;;;9.75;3.65;;;;;;;23.20;59.17;101719.88;3488908;83;33510;-78
2022/08/10 07:51:18;;;;;;;8.23;3.20;;;;;;;23.17;57.08;101715.10;3475222;82;33074;-79
2022/08/10 07:56:24;;;;;;;7.75;3.50;;;;;;;23.19;57.53;101708.45;3477603;83;98738;-79
2022/08/10 08:01:30;;;;;;;9.60;4.00;;;;;;;23.19;56.80;101718.89;3487211;83;32983;-79
2022/08/10 08:06:33;;;;;;;9.18;3.47;;;;;;;23.16;56.47;101711.31;3474268;83;98989;-79
2022/08/10 08:11:36;;;;;;;8.15;3.37;;;;;;;23.29;56.55;101714.48;3488782;82;33103;-79
2022/08/10 08:16:41;;;;;;;8.13;3.98;;;;;;;23.47;56.49;101714.08;3541714;81;99002;-80
2022/08/10 08:21:43;;;;;;;5.25;3.00;;;;;;;23.75;56.04;101718.48;3524939;81;26395;-80
2022/08/10 08:26:46;;;;;;;9.50;3.80;;;;;;;24.13;55.76;101709.00;3537532;81;98843;-81
2022/08/10 08:31:50;;;;;;;9.00;3.98;;;;;;;24.63;55.55;101705.13;3507324;82;38356;-80
2022/08/10 08:36:53;;;;;;;7.28;2.87;;;;;;;25.62;54.42;101701.86;3523555;82;99038;-81
2022/08/10 08:42:39;;;;;;;8.63;3.30;;;;;;;26.37;53.45;101704.70;3534671;81;25943;-80
2022/08/10 08:48:05;;;;;;;6.85;2.70;;;;;;;27.46;52.68;101702.23;3535327;81;98860;-81
2022/08/10 08:53:48;;;;;;;7.62;2.77;;;;;;;28.40;49.58;101700.46;3492032;83;25833;-80
2022/08/10 08:59:34;;;;;;;7.65;2.50;;;;;;;29.13;47.12;101693.59;3519241;81;98846;-80
2022/08/10 09:05:18;;;;;;;5.22;2.05;;;;;;;29.96;47.83;101686.62;3526055;82;26475;-82
2022/08/10 09:10:46;;;;;;;5.77;2.40;;;;;;;30.15;45.54;101687.49;3524081;81;98638;-80
2022/08/10 09:16:15;;;;;;;5.97;2.60;;;;;;;31.10;44.94;101686.78;3528198;82;25884;-80
2022/08/10 09:21:31;;;;;;;6.33;2.50;;;;;;;32.14;43.47;101687.20;3536277;81;25846;-81
2022/08/10 09:26:46;;;;;;;5.40;2.20;;;;;;;32.81;41.44;101682.56;3535399;82;98663;-80
2022/08/10 09:31:53;;;;;;;5.33;2.42;;;;;;;33.20;40.06;101675.87;3508823;82;25921;-81
2022/08/10 09:37:15;;;;;;;9.78;2.92;;;;;;;33.74;39.52;101671.97;3529986;82;98861;-80
2022/08/10 09:42:57;;;;;;;6.70;2.58;;;;;;;34.09;37.73;101673.28;3505448;82;26527;-81
2022/08/10 09:48:26;;;;;;;5.10;2.27;;;;;;;33.82;37.42;101669.59;3547820;80;98965;-80
2022/08/10 09:53:44;;;;;;;5.90;2.40;;;;;;;33.85;36.51;101668.59;3524816;82;26609;-80
2022/08/10 09:59:09;;;;;;;5.85;2.50;;;;;;;33.20;35.86;101663.03;3511131;82;98507;-80
2022/08/10 10:04:51;;;;;;;7.65;2.77;;;;;;;33.59;35.46;101649.27;3521125;82;26151;-79
2022/08/10 10:10:18;;;;;;;6.37;2.72;;;;;;;33.72;34.39;101646.77;3506643;82;98671;-81
2022/08/10 10:15:49;;;;;;;6.15;2.40;;;;;;;33.72;35.05;101646.00;3511305;81;26504;-82
2022/08/10 10:21:24;;;;;;;5.87;2.40;;;;;;;33.02;35.48;101643.40;3502929;82;98653;-79
2022/08/10 10:26:45;;;;;;;3.25;2.22;;;;;;;32.75;35.06;101647.47;3499523;82;98717;-79
2022/08/10 10:32:23;;;;;;;4.37;2.00;;;;;;;32.23;35.55;101642.91;3501505;82;34423;-80
2022/08/10 10:37:26;;;;;;;4.90;2.20;;;;;;;32.06;36.38;101629.08;3487920;82;98590;-81
2022/08/10 10:43:01;;;;;;;6.47;2.30;;;;;;;32.06;36.38;101629.08;3501849;83;25994;-81
2022/08/10 10:48:13;;;;;;;5.03;2.58;;;;;;;31.65;36.04;101629.47;3475593;83;98945;-81
2022/08/10 10:53:34;;;;;;;5.35;2.42;;;;;;;31.06;36.49;101627.25;3506697;82;26337;-81
2022/08/10 10:58:44;;;;;;;8.28;2.72;;;;;;;30.84;36.61;101620.38;3485564;83;98558;-81
2022/08/10 11:03:53;;;;;;;4.83;2.20;;;;;;;31.04;35.59;101610.53;3501788;82;26506;-81
2022/08/10 11:09:02;;;;;;;7.78;2.67;;;;;;;31.28;35.06;101610.60;3470487;83;98811;-81
2022/08/10 11:14:30;;;;;;;4.15;2.10;;;;;;;31.42;35.02;101615.50;3514032;81;25783;-81
2022/08/10 11:20:01;;;;;;;6.65;2.37;;;;;;;31.89;35.92;101615.88;3537610;81;98458;-81
2022/08/10 11:25:35;;;;;;;5.72;2.37;;;;;;;32.60;35.58;101606.08;3556225;81;25905;-80
2022/08/10 11:31:12;;;;;;;3.75;2.10;;;;;;;32.69;34.50;101603.09;3543954;81;98598;-80
2022/08/10 11:36:36;;;;;;;8.80;2.33;;;;;;;32.88;32.30;101597.21;3544309;81;25816;-79
2022/08/10 11:41:52;;;;;;;4.35;2.27;;;;;;;33.35;32.26;101582.37;3535483;81;26000;-79
2022/08/10 11:47:10;;;;;;;4.97;2.52;;;;;;;33.56;30.92;101587.45;3563579;81;98540;-80
2022/08/10 11:52:23;;;;;;;5.80;2.22;;;;;;;33.58;32.20;101584.10;3557790;81;26883;-80
2022/08/10 11:57:28;;;;;;;4.17;1.90;;;;;;;33.21;32.53;101577.55;3505003;81;98568;-80
2022/08/10 12:02:40;;;;;;;5.72;2.10;;;;;;;33.46;33.15;101578.18;3554216;81;35041;-79
2022/08/10 12:07:51;;;;;;;4.47;2.50;;;;;;;33.44;32.96;101574.40;3544874;81;98499;-79
2022/08/10 12:13:12;;;;;;;4.30;2.35;;;;;;;33.23;32.53;101570.05;3563542;81;25951;-80
2022/08/10 12:18:33;;;;;;;4.15;2.20;;;;;;;32.95;32.21;101571.88;3547000;81;98738;-79
2022/08/10 12:23:45;;;;;;;4.65;2.25;;;;;;;33.04;31.97;101567.44;3540030;81;26631;-79
2022/08/10 12:29:03;;;;;;;6.55;2.67;;;;;;;32.84;32.65;101565.27;3536069;81;98813;-79
2022/08/10 12:34:31;;;;;;;5.20;2.80;;;;;;;33.09;31.55;101555.29;3562932;81;26474;-81
2022/08/10 12:39:54;;;;;;;4.70;2.10;;;;;;;33.54;31.15;101550.70;3516117;82;98440;-80
2022/08/10 12:45:07;;;;;;;6.42;2.52;;;;;;;33.63;32.30;101550.52;3552518;81;26328;-80
2022/08/10 12:50:34;;;;;;;6.47;2.00;;;;;;;33.54;31.92;101541.51;3545746;81;98230;-80
2022/08/10 12:55:38;;;;;;;4.95;2.33;;;;;;;32.92;31.08;101547.86;3543376;81;26583;-80
2022/08/10 13:00:41;;;;;;;6.80;2.20;;;;;;;32.33;32.15;101547.48;3508817;82;98308;-78
2022/08/10 13:05:43;;;;;;;4.58;2.30;;;;;;;32.19;32.94;101541.19;3512233;81;25952;-79
2022/08/10 13:10:52;;;;;;;3.67;1.95;;;;;;;31.84;32.80;101538.27;3550812;81;98733;-80
2022/08/10 13:15:56;;;;;;;6.00;2.30;;;;;;;31.66;32.43;101523.62;3554548;81;26104;-79
2022/08/10 13:21:04;;;;;;;2.65;1.65;;;;;;;31.59;32.63;101513.29;3568284;81;98340;-80
2022/08/10 13:26:08;;;;;;;4.42;1.98;;;;;;;31.35;32.82;101512.06;3572501;81;25996;-79
2022/08/10 13:31:13;;;;;;;3.83;2.00;;;;;;;31.35;32.68;101502.73;3510963;81;98433;-79
2022/08/10 13:36:18;;;;;;;2.62;1.72;;;;;;;31.60;33.84;101500.65;3554322;81;97847;-80
2022/08/10 13:41:20;;;;;;;5.85;1.85;;;;;;;32.03;33.38;101490.49;3556912;81;25963;-81
2022/08/10 13:46:22;;;;;;;6.13;2.20;;;;;;;32.33;33.19;101484.80;3520121;82;98489;-80
2022/08/10 13:51:27;;;;;;;3.30;1.92;;;;;;;32.33;32.18;101495.39;3514760;81;25484;-81
2022/08/10 13:56:31;;;;;;;4.30;1.95;;;;;;;32.11;33.05;101488.79;3536311;82;98515;-80
2022/08/10 14:01:35;;;;;;;5.62;2.27;;;;;;;31.89;32.82;101492.00;3544267;81;26775;-81
2022/08/10 14:06:39;;;;;;;8.30;2.08;;;;;;;31.81;31.42;101483.75;3540169;81;98941;-80
2022/08/10 14:11:41;;;;;;;4.40;2.20;;;;;;;31.49;31.41;101464.92;3549140;81;42492;-81
2022/08/10 14:16:44;;;;;;;2.65;1.60;;;;;;;31.44;32.03;101455.66;3539397;81;98776;-81
2022/08/10 14:21:45;;;;;;;3.22;2.02;;;;;;;31.74;33.20;101451.42;3543696;81;26752;-81
2022/08/10 14:26:49;;;;;;;6.67;2.10;;;;;;;31.88;32.95;101447.72;3545153;81;98465;-80
2022/08/10 14:31:51;;;;;;;5.45;2.17;;;;;;;31.75;32.61;101448.71;3542371;81;26112;-81
2022/08/10 14:37:01;;;;;;;3.70;1.92;;;;;;;31.61;32.13;101448.13;3547339;82;98738;-81
2022/08/10 14:42:05;;;;;;;3.30;1.85;;;;;;;31.19;31.75;101452.84;3558117;82;26704;-81
2022/08/10 14:47:08;;;;;;;7.30;2.20;;;;;;;30.72;32.24;101443.80;3529670;81;98785;-82
2022/08/10 14:52:10;;;;;;;2.90;1.60;;;;;;;30.40;31.48;101446.94;3550216;81;26110;-79
2022/08/10 14:57:13;;;;;;;2.72;1.98;;;;;;;30.45;33.19;101438.38;3538641;81;98777;-80
2022/08/10 15:02:18;;;;;;;3.10;1.87;;;;;;;30.51;32.78;101434.34;3544928;81;47073;-80
2022/08/10 15:07:24;;;;;;;6.55;1.80;;;;;;;30.64;33.54;101435.47;3534244;82;98495;-82
2022/08/10 15:12:36;;;;;;;12.55;2.60;;;;;;;30.25;32.26;101432.58;3544392;81;25978;-84
2022/08/10 15:17:46;;;;;;;5.45;1.80;;;;;;;30.13;33.15;101430.16;3532717;81;98615;-81
2022/08/10 15:22:51;;;;;;;3.67;2.00;;;;;;;29.84;33.43;101431.50;3562547;81;26603;-82
2022/08/10 15:28:04;;;;;;;4.12;1.95;;;;;;;29.66;33.89;101427.39;3539371;81;98690;-81
2022/08/10 15:38:37;;;;;;;3.95;2.55;;;;;;;29.04;33.54;101420.80;3550603;81;99390;-81
2022/08/10 15:43:39;;;;;;;5.22;2.08;;;;;;;28.88;34.21;101418.98;3565215;81;25991;-79
2022/08/10 15:48:44;;;;;;;3.37;1.92;;;;;;;28.74;34.14;101419.03;3541354;81;98533;-79
2022/08/10 15:53:52;;;;;;;5.45;2.75;;;;;;;28.74;33.99;101420.45;3518856;81;2259552;-78
2022/08/10 15:58:58;;;;;;;6.25;2.22;;;;;;;28.37;33.88;101407.63;3541927;81;99055;-80
2022/08/10 16:04:11;;;;;;;4.78;1.90;;;;;;;28.30;35.08;101398.05;3562134;81;26070;-80
2022/08/10 16:09:23;;;;;;;3.92;2.25;;;;;;;28.13;35.00;101405.94;3542943;81;98701;-80
2022/08/10 16:14:29;;;;;;;4.92;1.98;;;;;;;27.91;34.85;101398.27;3568983;81;27814;-79
2022/08/10 16:19:31;;;;;;;5.25;2.10;;;;;;;27.83;35.42;101398.41;3555057;81;98527;-79
2022/08/10 16:24:38;;;;;;;3.85;2.02;;;;;;;27.68;35.94;101405.94;3526700;81;33054;-80
2022/08/10 16:29:41;;;;;;;4.35;2.15;;;;;;;27.52;35.75;101400.58;3540147;81;99024;-80
2022/08/10 16:34:44;;;;;;;5.78;2.10;;;;;;;27.30;35.55;101396.45;3558499;81;26446;-80
2022/08/10 16:39:54;;;;;;;5.15;2.20;;;;;;;27.06;36.02;101398.27;3536298;81;98306;-79
2022/08/10 16:45:04;;;;;;;3.85;1.90;;;;;;;26.80;35.85;101392.67;3553506;81;26033;-80
2022/08/10 16:50:08;;;;;;;5.08;2.20;;;;;;;26.58;36.68;101390.53;3554413;81;98675;-79
2022/08/10 16:55:14;;;;;;;6.78;2.17;;;;;;;26.31;37.19;101364.19;3543164;81;25919;-79
2022/08/10 17:00:16;;;;;;;7.65;2.15;;;;;;;26.36;37.32;101393.20;3554093;81;98688;-79
2022/08/10 17:05:21;;;;;;;6.97;3.02;;;;;;;26.08;37.00;101393.67;3526233;81;32964;-80
2022/08/10 17:10:22;;;;;;;4.35;1.65;;;;;;;25.91;37.35;101401.37;3529277;81;98634;-78
2022/08/10 17:15:27;;;;;;;5.00;1.75;;;;;;;25.71;37.51;101395.23;3550242;81;25819;-78
2022/08/10 17:20:39;;;;;;;2.47;1.62;;;;;;;25.52;37.72;101388.65;3497794;81;98468;-79
2022/08/10 17:25:43;;;;;;;4.22;1.90;;;;;;;25.43;37.92;101391.38;3564282;81;33440;-79
2022/08/10 17:30:54;;;;;;;3.60;1.55;;;;;;;25.26;37.93;101391.97;3537947;81;99039;-78
2022/08/10 17:36:00;;;;;;;5.70;2.45;;;;;;;25.12;38.36;101392.44;3512559;81;32940;-78
2022/08/10 17:41:07;;;;;;;6.28;2.00;;;;;;;25.01;38.44;101397.00;3535284;81;98369;-78
2022/08/10 17:46:11;;;;;;;3.45;1.57;;;;;;;24.85;38.17;101401.98;3528705;81;33531;-78
2022/08/10 17:51:15;;;;;;;3.50;1.80;;;;;;;24.70;38.55;101400.84;3521271;81;98256;-79
2022/08/10 17:56:19;;;;;;;3.50;1.70;;;;;;;24.57;38.62;101398.63;3505615;81;98993;-78
2022/08/10 18:01:26;;;;;;;2.58;1.50;;;;;;;24.47;39.33;101395.52;3527462;81;28297;-78
2022/08/10 18:06:29;;;;;;;4.40;1.80;;;;;;;24.30;39.07;101399.02;3557405;81;98979;-78
2022/08/10 18:11:37;;;;;;;2.75;1.67;;;;;;;24.16;39.71;101404.28;3529985;81;42956;-79
2022/08/10 18:16:40;;;;;;;6.30;2.10;;;;;;;24.04;40.25;101407.84;3497701;81;98741;-79
2022/08/10 18:21:45;;;;;;;3.92;1.80;;;;;;;23.90;40.42;101395.58;3545070;81;33035;-79
2022/08/10 18:26:52;;;;;;;3.02;1.50;;;;;;;23.72;40.63;101405.91;3543478;81;98684;-79
2022/08/10 18:32:00;;;;;;;3.37;1.60;;;;;;;23.44;40.81;101393.99;3560692;81;25975;-79
2022/08/10 18:37:05;;;;;;;6.12;1.87;;;;;;;23.39;40.75;101412.81;3519883;81;98755;-78
2022/08/10 18:42:18;;;;;;;6.35;1.65;;;;;;;23.26;41.30;101416.77;3546128;81;28753;-78
2022/08/10 18:47:27;;;;;;;5.65;1.50;;;;;;;23.10;41.68;101422.36;3544625;81;98786;-79
2022/08/10 18:52:32;;;;;;;6.72;1.60;;;;;;;22.98;42.15;101430.05;3560737;81;26118;-78
2022/08/10 18:57:54;;;;;;;5.53;1.85;;;;;;;22.84;42.42;101431.80;3524240;81;98848;-78
2022/08/10 19:03:12;;;;;;;4.87;1.82;;;;;;;22.71;43.06;101433.09;3537069;81;57053;-79
2022/08/10 19:08:22;;;;;;;6.17;1.67;;;;;;;22.54;42.54;101439.89;3516669;81;99008;-81
2022/08/10 19:13:34;;;;;;;3.10;1.45;;;;;;;22.40;42.46;101439.38;3539630;81;33469;-78
2022/08/10 19:19:20;;;;;;;4.25;1.72;;;;;;;22.25;42.13;101446.50;3511818;81;98712;-79
2022/08/10 19:24:44;;;;;;;5.57;2.00;;;;;;;22.10;43.05;101441.80;3498895;83;25917;-79
2022/08/10 19:30:05;;;;;;;4.85;1.60;;;;;;;21.97;42.42;101451.28;3493036;83;98662;-80
2022/08/10 19:35:42;;;;;;;5.83;1.60;;;;;;;21.86;43.40;101457.70;3477945;81;34295;-80
2022/08/10 19:41:09;;;;;;;5.20;1.72;;;;;;;21.72;43.10;101464.95;3466883;83;98501;-79
2022/08/10 19:46:40;;;;;;;4.85;1.60;;;;;;;21.61;43.24;101465.72;3464787;82;33894;-80
2022/08/10 19:52:15;;;;;;;7.95;2.15;;;;;;;21.52;43.80;101459.27;3503999;82;32895;-80
2022/08/10 19:57:52;;;;;;;4.60;1.87;;;;;;;21.44;44.16;101455.61;3465566;83;98618;-80
2022/08/10 20:03:14;;;;;;;7.35;2.08;;;;;;;21.33;43.91;101453.60;3505633;83;32978;-81
2022/08/10 20:08:20;;;;;;;4.80;2.10;;;;;;;21.26;44.34;101464.93;3482126;83;98524;-81
2022/08/10 20:13:26;;;;;;;5.17;2.08;;;;;;;21.14;44.18;101463.50;3493747;83;32986;-80
2022/08/10 20:18:43;;;;;;;5.25;2.05;;;;;;;21.00;44.61;101460.13;3519581;81;98955;-81
2022/08/10 20:24:12;;;;;;;5.33;1.92;;;;;;;21.01;45.07;101467.31;3513063;81;32931;-80
2022/08/10 20:29:37;;;;;;;5.45;1.75;;;;;;;20.96;45.46;101466.38;3557684;81;98806;-81
2022/08/10 20:34:47;;;;;;;5.90;2.45;;;;;;;20.90;47.03;101454.89;3546061;81;32985;-80
2022/08/10 20:40:08;;;;;;;2.87;1.85;;;;;;;20.89;47.76;101462.30;3524060;81;98303;-80
2022/08/10 20:45:30;;;;;;;5.53;2.22;;;;;;;20.81;47.82;101458.77;3494262;81;34056;-80
2022/08/10 20:50:57;;;;;;;6.22;2.52;;;;;;;20.73;48.72;101468.50;3549353;81;98556;-80
2022/08/10 20:56:15;;;;;;;4.20;2.33;;;;;;;20.67;49.28;101468.78;3527861;81;26556;-80
2022/08/10 21:01:38;;;;;;;8.73;3.27;;;;;;;20.60;49.59;101475.08;3541644;81;34013;-80
2022/08/10 21:07:26;;;;;;;7.12;2.37;;;;;;;20.53;49.93;101469.55;3541501;81;98429;-80
2022/08/10 21:12:44;;;;;;;6.00;2.60;;;;;;;20.44;50.38;101471.47;3558770;81;32951;-80
2022/08/10 21:18:08;;;;;;;6.83;2.90;;;;;;;20.36;50.86;101467.19;3534896;81;98476;-80
2022/08/10 21:23:11;;;;;;;5.90;2.70;;;;;;;20.25;51.53;101471.30;3458527;82;32970;-79
2022/08/10 22:51:17;;;;;;;4.05;2.02;;;;;;;18.83;57.16;101462.36;3546557;81;98656;-80
2022/08/10 23:01:51;;;;;;;5.97;2.22;;;;;;;18.59;56.82;101465.48;3547247;81;33015;-80
2022/08/10 23:07:18;;;;;;;10.85;2.25;;;;;;;18.42;57.27;101473.95;3541408;81;98468;-80
2022/08/10 23:12:24;;;;;;;4.75;2.15;;;;;;;18.31;57.09;101462.80;3558962;82;32993;-81
2022/08/10 23:22:49;;;;;;;8.80;2.52;;;;;;;18.12;57.30;101467.45;3529220;82;33428;-80
2022/08/10 23:27:56;;;;;;;7.97;2.50;;;;;;;17.94;56.01;101469.48;3469783;82;98844;-81
2022/08/10 23:32:58;;;;;;;;;;;;;;;17.83;56.18;101466.53;3525457;82;26217;-81
2022/08/10 23:38:01;;;;;;;6.72;2.98;;;;;;;17.75;57.57;101470.52;3534169;82;85044;-82
2022/08/10 23:43:04;;;;;;;7.42;2.37;;;;;;;17.72;57.89;101474.89;3524729;82;32985;-82
2022/08/10 23:48:06;;;;;;;4.50;2.25;;;;;;;17.68;58.11;101473.31;3538008;82;98547;-81
2022/08/10 23:53:07;;;;;;;9.48;2.55;;;;;;;17.67;58.63;101475.32;3537597;82;32949;-81
2022/08/10 23:58:10;;;;;;;8.53;2.50;;;;;;;17.67;59.03;101473.13;3530034;82;98491;-81
